Time,TemperatureF,DewpointF,PressureIn,WindDirection,WindDirectionDegrees,WindSpeedMPH,WindSpeedGustMPH,Humidity,HourlyPrecipIn,Conditions,Clouds,dailyrainin,SoftwareType,DateUTC
2013-03-04 00:01:00,39.0,27.3,28.81,ESE,113,0.0,0.0,63,0.00,,,0.00,WUHU216HW,2013-03-04 06:01:00,
2013-03-04 00:06:00,39.0,27.3,28.81,East,90,0.0,0.0,63,0.00,,,0.00,WUHU216HW,2013-03-04 06:06:00,
2013-03-04 00:11:00,39.0,27.3,28.80,SSE,158,0.6,0.6,63,0.00,,,0.00,WUHU216HW,2013-03-04 06:11:00,
2013-03-04 00:16:00,39.0,27.7,28.80,SE,135,0.0,1.5,64,0.00,,,0.00,WUHU216HW,2013-03-04 06:16:00,
2013-03-04 00:21:00,39.0,27.7,28.80,South,180,0.0,1.5,64,0.00,,,0.00,WUHU216HW,2013-03-04 06:21:00,
2013-03-04 00:26:00,39.0,27.7,28.79,SE,135,0.0,0.0,64,0.00,,,0.00,WUHU216HW,2013-03-04 06:26:00,
2013-03-04 00:31:00,39.3,28.1,28.79,SE,135,5.1,5.1,64,0.00,,,0.00,WUHU216HW,2013-03-04 06:31:00,
2013-03-04 00:36:00,39.3,28.1,28.78,SSE,158,6.7,6.7,64,0.00,,,0.00,WUHU216HW,2013-03-04 06:36:00,
2013-03-04 00:41:00,39.3,28.1,28.78,SE,135,0.0,6.7,64,0.00,,,0.00,WUHU216HW,2013-03-04 06:41:00,
2013-03-04 00:46:00,39.3,28.1,28.78,SE,135,5.8,5.8,64,0.00,,,0.00,WUHU216HW,2013-03-04 06:46:00,
2013-03-04 00:51:00,39.5,28.2,28.78,SE,135,5.1,5.8,64,0.00,,,0.00,WUHU216HW,2013-03-04 06:51:00,
2013-03-04 00:56:00,39.5,27.9,28.78,SE,135,1.3,5.8,63,0.00,,,0.00,WUHU216HW,2013-03-04 06:56:00,
2013-03-04 01:01:00,39.7,28.0,28.77,SE,135,0.0,4.2,63,0.00,,,0.00,WUHU216HW,2013-03-04 07:01:00,
2013-03-04 01:06:00,39.9,28.2,28.77,SE,135,2.4,5.1,63,0.00,,,0.00,WUHU216HW,2013-03-04 07:06:00,
2013-03-04 01:11:00,40.1,28.0,28.77,ESE,113,5.5,5.5,62,0.00,,,0.00,WUHU216HW,2013-03-04 07:11:00,
2013-03-04 01:17:00,39.9,28.2,28.77,ESE,113,5.5,10.5,63,0.00,,,0.00,WUHU216HW,2013-03-04 07:17:00,
2013-03-04 01:22:00,39.9,27.8,28.77,SE,135,0.0,10.5,62,0.00,,,0.00,WUHU216HW,2013-03-04 07:22:00,
2013-03-04 01:27:00,39.9,27.8,28.77,ESE,113,7.1,7.1,62,0.00,,,0.00,WUHU216HW,2013-03-04 07:27:00,
2013-03-04 01:32:00,39.9,28.2,28.77,ESE,113,0.0,7.1,63,0.00,,,0.00,WUHU216HW,2013-03-04 07:32:00,
2013-03-04 01:37:00,39.7,28.0,28.77,ESE,113,0.0,7.8,63,0.00,,,0.00,WUHU216HW,2013-03-04 07:37:00,
2013-03-04 01:42:00,39.7,28.0,28.77,SE,135,0.0,7.8,63,0.00,,,0.00,WUHU216HW,2013-03-04 07:42:00,
2013-03-04 01:47:00,39.5,27.9,28.77,SSE,158,0.0,5.1,63,0.00,,,0.00,WUHU216HW,2013-03-04 07:47:00,
2013-03-04 01:52:00,39.3,28.1,28.77,SE,135,0.0,7.1,64,0.00,,,0.00,WUHU216HW,2013-03-04 07:52:00,
2013-03-04 01:57:00,39.0,27.3,28.76,ESE,113,4.4,7.1,63,0.00,,,0.00,WUHU216HW,2013-03-04 07:57:00,
2013-03-04 02:02:00,39.0,27.7,28.76,SSE,158,0.0,4.4,64,0.00,,,0.00,WUHU216HW,2013-03-04 08:02:00,
2013-03-04 02:07:00,38.8,27.6,28.76,ESE,113,7.1,7.1,64,0.00,,,0.00,WUHU216HW,2013-03-04 08:07:00,
2013-03-04 02:12:00,38.8,27.6,28.76,SE,135,0.6,7.1,64,0.00,,,0.00,WUHU216HW,2013-03-04 08:12:00,
2013-03-04 02:17:00,38.8,27.6,28.75,SSE,158,0.0,7.1,64,0.00,,,0.00,WUHU216HW,2013-03-04 08:17:00,
2013-03-04 02:22:00,38.4,27.2,28.75,SSE,158,0.0,1.5,64,0.00,,,0.00,WUHU216HW,2013-03-04 08:22:00,
2013-03-04 02:27:00,38.4,27.2,28.75,SE,135,0.0,4.4,64,0.00,,,0.00,WUHU216HW,2013-03-04 08:27:00,
2013-03-04 02:32:00,38.4,27.6,28.75,SE,135,0.0,4.4,65,0.00,,,0.00,WUHU216HW,2013-03-04 08:32:00,
2013-03-04 02:37:00,38.3,27.5,28.74,SSE,158,0.0,0.0,65,0.00,,,0.00,WUHU216HW,2013-03-04 08:37:00,
2013-03-04 02:43:00,38.1,27.3,28.74,SE,135,0.0,0.0,65,0.00,,,0.00,WUHU216HW,2013-03-04 08:43:00,
2013-03-04 02:48:00,38.1,27.3,28.75,SSE,158,7.6,8.2,65,0.00,,,0.00,WUHU216HW,2013-03-04 08:48:00,
2013-03-04 02:53:00,37.9,27.5,28.75,ESE,113,0.0,8.2,66,0.00,,,0.00,WUHU216HW,2013-03-04 08:53:00,
2013-03-04 02:58:00,37.7,27.3,28.75,East,90,0.4,0.4,66,0.00,,,0.00,WUHU216HW,2013-03-04 08:58:00,
2013-03-04 03:03:00,37.5,27.2,28.74,East,90,0.0,1.5,66,0.00,,,0.00,WUHU216HW,2013-03-04 09:03:00,
2013-03-04 03:08:00,37.2,27.2,28.74,East,90,0.0,1.5,67,0.00,,,0.00,WUHU216HW,2013-03-04 09:08:00,
2013-03-04 03:13:00,37.2,27.2,28.75,East,90,0.0,4.2,67,0.00,,,0.00,WUHU216HW,2013-03-04 09:13:00,
2013-03-04 03:18:00,37.2,27.2,28.74,East,90,0.0,4.2,67,0.00,,,0.00,WUHU216HW,2013-03-04 09:18:00,
2013-03-04 03:23:00,37.0,27.4,28.74,East,90,0.0,0.0,68,0.00,,,0.00,WUHU216HW,2013-03-04 09:23:00,
2013-03-04 03:28:00,36.8,27.2,28.74,East,90,0.0,0.0,68,0.00,,,0.00,WUHU216HW,2013-03-04 09:28:00,
2013-03-04 03:33:00,36.8,27.2,28.74,ENE,68,0.0,0.0,68,0.00,,,0.00,WUHU216HW,2013-03-04 09:33:00,
2013-03-04 03:38:00,36.6,27.1,28.74,ENE,68,0.0,0.0,68,0.00,,,0.00,WUHU216HW,2013-03-04 09:38:00,
2013-03-04 03:43:00,36.6,27.1,28.73,ESE,113,0.0,0.0,68,0.00,,,0.00,WUHU216HW,2013-03-04 09:43:00,
2013-03-04 03:49:00,36.6,27.1,28.74,East,90,0.0,0.0,68,0.00,,,0.00,WUHU216HW,2013-03-04 09:49:00,
2013-03-04 03:54:00,36.5,26.9,28.73,ESE,113,0.0,0.0,68,0.00,,,0.00,WUHU216HW,2013-03-04 09:54:00,
2013-03-04 03:59:00,36.6,27.1,28.73,ESE,113,0.0,1.3,68,0.00,,,0.00,WUHU216HW,2013-03-04 09:59:00,
2013-03-04 04:04:00,36.6,27.1,28.73,ESE,113,4.9,5.3,68,0.00,,,0.00,WUHU216HW,2013-03-04 10:04:00,
2013-03-04 04:09:00,36.8,27.2,28.73,ESE,113,0.0,7.1,68,0.00,,,0.00,WUHU216HW,2013-03-04 10:09:00,
2013-03-04 04:14:00,36.8,27.2,28.74,East,90,0.0,7.1,68,0.00,,,0.00,WUHU216HW,2013-03-04 10:14:00,
2013-03-04 04:19:00,36.8,27.2,28.75,ENE,68,0.6,6.9,68,0.00,,,0.00,WUHU216HW,2013-03-04 10:19:00,
2013-03-04 04:24:00,37.0,27.4,28.75,ESE,113,0.0,6.9,68,0.00,,,0.00,WUHU216HW,2013-03-04 10:24:00,
2013-03-04 04:29:00,36.8,27.2,28.75,East,90,0.0,6.9,68,0.00,,,0.00,WUHU216HW,2013-03-04 10:29:00,
2013-03-04 04:34:00,36.8,27.2,28.75,ESE,113,5.8,5.8,68,0.00,,,0.00,WUHU216HW,2013-03-04 10:34:00,
2013-03-04 04:40:00,36.5,26.9,28.75,ENE,68,7.3,7.3,68,0.00,,,0.00,WUHU216HW,2013-03-04 10:40:00,
2013-03-04 04:45:00,36.3,26.7,28.75,ENE,68,1.7,7.3,68,0.00,,,0.00,WUHU216HW,2013-03-04 10:45:00,
2013-03-04 04:50:00,36.3,26.7,28.75,ENE,68,0.0,7.3,68,0.00,,,0.00,WUHU216HW,2013-03-04 10:50:00,
2013-03-04 04:55:00,35.9,26.7,28.75,ENE,68,0.0,3.3,69,0.00,,,0.00,WUHU216HW,2013-03-04 10:55:00,
2013-03-04 05:00:00,35.7,26.5,28.74,East,90,1.5,3.3,69,0.00,,,0.00,WUHU216HW,2013-03-04 11:00:00,
2013-03-04 05:05:00,35.4,26.6,28.74,ESE,113,0.0,1.5,70,0.00,,,0.00,WUHU216HW,2013-03-04 11:05:00,
2013-03-04 05:10:00,35.2,26.4,28.74,ESE,113,5.5,5.5,70,0.00,,,0.00,WUHU216HW,2013-03-04 11:10:00,
2013-03-04 05:15:00,35.4,26.4,28.74,East,90,0.0,6.0,70,0.00,,,0.00,WUHU216HW,2013-03-04 11:15:00,
2013-03-04 05:20:00,35.2,26.7,28.74,ESE,113,4.0,6.0,71,0.00,,,0.00,WUHU216HW,2013-03-04 11:20:00,
2013-03-04 05:25:00,35.2,26.7,28.74,ESE,113,0.0,4.0,71,0.00,,,0.00,WUHU216HW,2013-03-04 11:25:00,
2013-03-04 05:31:00,34.8,26.3,28.73,ESE,113,0.0,4.0,71,0.00,,,0.00,WUHU216HW,2013-03-04 11:31:00,
2013-03-04 05:36:00,34.8,26.3,28.74,East,90,2.9,2.9,71,0.00,,,0.00,WUHU216HW,2013-03-04 11:36:00,
2013-03-04 05:41:00,34.8,26.3,28.73,East,90,0.0,4.4,71,0.00,,,0.00,WUHU216HW,2013-03-04 11:41:00,
2013-03-04 05:46:00,34.8,26.3,28.74,East,90,0.0,5.1,71,0.00,,,0.00,WUHU216HW,2013-03-04 11:46:00,
2013-03-04 05:51:00,34.7,26.5,28.74,East,90,0.0,5.1,72,0.00,,,0.00,WUHU216HW,2013-03-04 11:51:00,
2013-03-04 05:56:00,34.7,26.2,28.75,East,90,0.0,2.9,71,0.00,,,0.00,WUHU216HW,2013-03-04 11:56:00,
2013-03-04 06:01:00,34.7,26.5,28.75,ENE,68,0.0,2.9,72,0.00,,,0.00,WUHU216HW,2013-03-04 12:01:00,
2013-03-04 06:06:00,34.5,26.3,28.75,ENE,68,0.0,0.0,72,0.00,,,0.00,WUHU216HW,2013-03-04 12:06:00,
2013-03-04 06:11:00,34.3,26.1,28.75,ENE,68,0.0,0.0,72,0.00,,,0.00,WUHU216HW,2013-03-04 12:11:00,
2013-03-04 06:16:00,34.3,26.1,28.75,East,90,5.1,5.1,72,0.00,,,0.00,WUHU216HW,2013-03-04 12:16:00,
2013-03-04 06:21:00,34.3,26.1,28.74,East,90,6.0,6.0,72,0.00,,,0.00,WUHU216HW,2013-03-04 12:21:00,
2013-03-04 06:26:00,34.3,26.4,28.74,ENE,68,0.0,6.0,73,0.00,,,0.00,WUHU216HW,2013-03-04 12:26:00,
2013-03-04 06:31:00,34.3,26.4,28.74,ENE,68,0.0,1.1,73,0.00,,,0.00,WUHU216HW,2013-03-04 12:31:00,
2013-03-04 06:36:00,34.1,26.3,28.75,ENE,68,0.0,0.0,73,0.00,,,0.00,WUHU216HW,2013-03-04 12:36:00,
2013-03-04 06:42:00,33.6,25.7,28.75,ENE,68,0.0,0.0,73,0.00,,,0.00,WUHU216HW,2013-03-04 12:42:00,
2013-03-04 06:47:00,33.4,25.6,28.75,ENE,68,0.0,0.0,73,0.00,,,0.00,WUHU216HW,2013-03-04 12:47:00,
2013-03-04 06:52:00,33.2,25.4,28.75,ENE,68,0.0,0.0,73,0.00,,,0.00,WUHU216HW,2013-03-04 12:52:00,
2013-03-04 06:57:00,32.9,25.4,28.75,ENE,68,0.0,0.0,74,0.00,,,0.00,WUHU216HW,2013-03-04 12:57:00,
2013-03-04 07:02:00,32.9,25.4,28.75,ENE,68,0.0,0.0,74,0.00,,,0.00,WUHU216HW,2013-03-04 13:02:00,
2013-03-04 07:07:00,33.0,25.6,28.74,ENE,68,0.0,0.0,74,0.00,,,0.00,WUHU216HW,2013-03-04 13:07:00,
2013-03-04 07:12:00,33.4,25.9,28.74,ENE,68,0.0,0.0,74,0.00,,,0.00,WUHU216HW,2013-03-04 13:12:00,
2013-03-04 07:17:00,33.9,26.4,28.74,ENE,68,2.9,3.3,74,0.00,,,0.00,WUHU216HW,2013-03-04 13:17:00,
2013-03-04 07:22:00,34.3,26.8,28.75,East,90,0.0,3.3,74,0.00,,,0.00,WUHU216HW,2013-03-04 13:22:00,
2013-03-04 07:27:00,34.3,26.4,28.74,East,90,3.1,3.1,73,0.00,,,0.00,WUHU216HW,2013-03-04 13:27:00,
2013-03-04 07:32:00,34.8,27.0,28.74,East,90,1.1,3.1,73,0.00,,,0.00,WUHU216HW,2013-03-04 13:32:00,
2013-03-04 07:37:00,35.2,27.3,28.74,East,90,0.0,1.1,73,0.00,,,0.00,WUHU216HW,2013-03-04 13:37:00,
2013-03-04 07:42:00,35.4,27.5,28.74,ESE,113,0.0,1.1,73,0.00,,,0.00,WUHU216HW,2013-03-04 13:42:00,
2013-03-04 07:47:00,35.4,27.2,28.74,East,90,0.0,6.0,72,0.00,,,0.00,WUHU216HW,2013-03-04 13:47:00,
2013-03-04 07:52:00,35.7,27.6,28.74,East,90,3.1,6.0,72,0.00,,,0.00,WUHU216HW,2013-03-04 13:52:00,
2013-03-04 07:57:00,35.9,27.7,28.74,East,90,0.0,7.6,72,0.00,,,0.00,WUHU216HW,2013-03-04 13:57:00,
2013-03-04 08:02:00,36.3,27.8,28.74,ESE,113,5.3,7.6,71,0.00,,,0.00,WUHU216HW,2013-03-04 14:02:00,
2013-03-04 08:07:00,36.6,28.1,28.74,SE,135,0.0,5.3,71,0.00,,,0.00,WUHU216HW,2013-03-04 14:07:00,
2013-03-04 08:12:00,37.0,28.2,28.75,ESE,113,0.0,5.3,70,0.00,,,0.00,WUHU216HW,2013-03-04 14:12:00,
2013-03-04 08:17:00,37.2,28.4,28.75,ESE,113,0.0,4.2,70,0.00,,,0.00,WUHU216HW,2013-03-04 14:17:00,
2013-03-04 08:22:00,37.4,28.2,28.75,SE,135,0.0,4.2,69,0.00,,,0.00,WUHU216HW,2013-03-04 14:22:00,
2013-03-04 08:28:00,37.7,28.5,28.75,SE,135,0.0,0.0,69,0.00,,,0.00,WUHU216HW,2013-03-04 14:28:00,
2013-03-04 08:33:00,38.3,28.6,28.75,ESE,113,0.0,0.0,68,0.00,,,0.00,WUHU216HW,2013-03-04 14:33:00,
2013-03-04 08:38:00,38.4,28.7,28.75,SE,135,0.0,3.3,68,0.00,,,0.00,WUHU216HW,2013-03-04 14:38:00,
2013-03-04 08:43:00,38.4,28.4,28.75,ESE,113,0.0,5.5,67,0.00,,,0.00,WUHU216HW,2013-03-04 14:43:00,
2013-03-04 08:48:00,38.8,28.3,28.74,ESE,113,0.0,5.5,66,0.00,,,0.00,WUHU216HW,2013-03-04 14:48:00,
2013-03-04 08:53:00,39.0,28.9,28.75,East,90,0.4,0.8,67,0.00,,,0.00,WUHU216HW,2013-03-04 14:53:00,
2013-03-04 08:58:00,39.0,28.5,28.75,ESE,113,5.5,5.5,66,0.00,,,0.00,WUHU216HW,2013-03-04 14:58:00,
2013-03-04 09:03:00,39.5,28.6,28.75,ESE,113,0.0,5.5,65,0.00,,,0.00,WUHU216HW,2013-03-04 15:03:00,
2013-03-04 09:08:00,40.1,29.2,28.75,ESE,113,0.0,0.0,65,0.00,,,0.00,WUHU216HW,2013-03-04 15:08:00,
2013-03-04 09:13:00,40.4,29.1,28.76,ESE,113,0.0,0.0,64,0.00,,,0.00,WUHU216HW,2013-03-04 15:13:00,
2013-03-04 09:18:00,40.8,29.5,28.75,SE,135,0.0,0.0,64,0.00,,,0.00,WUHU216HW,2013-03-04 15:18:00,
2013-03-04 09:23:00,41.0,29.7,28.76,SE,135,0.0,0.0,64,0.00,,,0.00,WUHU216HW,2013-03-04 15:23:00,
2013-03-04 09:28:00,41.3,29.6,28.76,ESE,113,0.0,0.0,63,0.00,,,0.00,WUHU216HW,2013-03-04 15:28:00,
2013-03-04 09:33:00,41.5,29.8,28.76,ESE,113,0.0,0.0,63,0.00,,,0.00,WUHU216HW,2013-03-04 15:33:00,
2013-03-04 09:38:00,41.7,29.6,28.76,ESE,113,0.0,0.0,62,0.00,,,0.00,WUHU216HW,2013-03-04 15:38:00,
2013-03-04 09:43:00,41.9,29.8,28.75,ESE,113,0.0,0.0,62,0.00,,,0.00,WUHU216HW,2013-03-04 15:43:00,
2013-03-04 09:48:00,42.4,30.2,28.76,SE,135,0.0,0.0,62,0.00,,,0.00,WUHU216HW,2013-03-04 15:48:00,
2013-03-04 09:53:00,42.6,30.0,28.75,ESE,113,0.0,0.0,61,0.00,,,0.00,WUHU216HW,2013-03-04 15:53:00,
2013-03-04 09:58:00,42.9,30.3,28.75,ESE,113,0.0,0.0,61,0.00,,,0.00,WUHU216HW,2013-03-04 15:58:00,
2013-03-04 10:03:00,42.9,30.0,28.75,East,90,0.0,1.1,60,0.00,,,0.00,WUHU216HW,2013-03-04 16:03:00,
2013-03-04 10:08:00,43.3,30.3,28.75,ESE,113,1.1,3.5,59,0.00,,,0.00,WUHU216HW,2013-03-04 16:08:00,
2013-03-04 10:14:00,43.5,30.1,28.75,ESE,113,0.0,3.5,59,0.00,,,0.00,WUHU216HW,2013-03-04 16:14:00,
2013-03-04 10:19:00,43.8,30.4,28.74,East,90,0.0,1.1,59,0.00,,,0.00,WUHU216HW,2013-03-04 16:19:00,
2013-03-04 10:24:00,44.6,30.5,28.74,ESE,113,0.0,5.5,58,0.00,,,0.00,WUHU216HW,2013-03-04 16:24:00,
2013-03-04 10:29:00,44.4,30.5,28.75,ESE,113,0.0,5.5,58,0.00,,,0.00,WUHU216HW,2013-03-04 16:29:00,
2013-03-04 10:34:00,44.4,30.5,28.75,East,90,0.0,0.0,58,0.00,,,0.00,WUHU216HW,2013-03-04 16:34:00,
2013-03-04 10:39:00,44.6,30.2,28.74,East,90,0.0,0.0,57,0.00,,,0.00,WUHU216HW,2013-03-04 16:39:00,
2013-03-04 10:44:00,44.7,30.4,28.74,East,90,0.6,0.6,57,0.00,,,0.00,WUHU216HW,2013-03-04 16:44:00,
2013-03-04 10:49:00,45.5,31.1,28.74,East,90,0.0,3.1,57,0.00,,,0.00,WUHU216HW,2013-03-04 16:49:00,
2013-03-04 10:54:00,45.6,30.8,28.74,East,90,0.0,3.1,56,0.00,,,0.00,WUHU216HW,2013-03-04 16:54:00,
2013-03-04 10:59:00,45.6,31.2,28.74,East,90,0.0,0.0,57,0.00,,,0.00,WUHU216HW,2013-03-04 16:59:00,
2013-03-04 11:04:00,46.9,31.5,28.74,East,90,0.0,5.1,55,0.00,,,0.00,WUHU216HW,2013-03-04 17:04:00,
2013-03-04 11:09:00,47.8,31.9,28.75,East,90,1.3,5.1,54,0.00,,,0.00,WUHU216HW,2013-03-04 17:09:00,
2013-03-04 11:15:00,48.2,31.7,28.74,East,90,0.0,1.3,53,0.00,,,0.00,WUHU216HW,2013-03-04 17:15:00,
2013-03-04 11:20:00,48.7,31.8,28.74,East,90,5.5,5.5,52,0.00,,,0.00,WUHU216HW,2013-03-04 17:20:00,
2013-03-04 11:25:00,48.7,31.8,28.74,East,90,0.0,6.7,52,0.00,,,0.00,WUHU216HW,2013-03-04 17:25:00,
2013-03-04 11:30:00,48.9,31.5,28.74,East,90,2.6,6.7,51,0.00,,,0.00,WUHU216HW,2013-03-04 17:30:00,
2013-03-04 11:35:00,49.6,32.2,28.74,East,90,1.5,6.2,51,0.00,,,0.00,WUHU216HW,2013-03-04 17:35:00,
2013-03-04 11:40:00,50.1,32.7,28.74,East,90,0.0,6.2,51,0.00,,,0.00,WUHU216HW,2013-03-04 17:40:00,
2013-03-04 11:45:00,50.3,32.5,28.75,East,90,0.0,2.2,50,0.00,,,0.00,WUHU216HW,2013-03-04 17:45:00,
2013-03-04 11:50:00,50.7,32.2,28.74,East,90,6.2,6.2,49,0.00,,,0.00,WUHU216HW,2013-03-04 17:50:00,
2013-03-04 11:55:00,51.4,33.1,28.74,ESE,113,0.0,6.2,50,0.00,,,0.00,WUHU216HW,2013-03-04 17:55:00,
2013-03-04 12:00:00,51.6,33.0,28.74,ENE,68,0.0,6.0,49,0.00,,,0.00,WUHU216HW,2013-03-04 18:00:00,
2013-03-04 12:05:00,51.9,33.4,28.74,ENE,68,0.0,6.0,49,0.00,,,0.00,WUHU216HW,2013-03-04 18:05:00,
2013-03-04 12:10:00,51.8,33.5,28.74,ENE,68,0.0,0.0,49,0.00,,,0.00,WUHU216HW,2013-03-04 18:10:00,
2013-03-04 12:15:00,52.8,33.6,28.74,ENE,68,0.0,0.0,48,0.00,,,0.00,WUHU216HW,2013-03-04 18:15:00,
2013-03-04 12:20:00,54.1,34.2,28.74,ENE,68,0.0,0.0,47,0.00,,,0.00,WUHU216HW,2013-03-04 18:20:00,
2013-03-04 12:26:00,54.8,34.6,28.74,ENE,68,0.0,0.0,46,0.00,,,0.00,WUHU216HW,2013-03-04 18:26:00,
2013-03-04 12:29:00,55.2,34.0,28.74,ENE,68,0.0,0.0,45,0.00,,,0.00,WUHU216HW,2013-03-04 18:29:00,
2013-03-04 12:30:00,55.4,34.2,28.74,ENE,68,0.0,0.0,45,0.00,,,0.00,WUHU216HW,2013-03-04 18:30:00,
2013-03-04 12:31:00,55.4,34.2,28.74,ENE,68,0.0,0.0,45,0.00,,,0.00,WUHU216HW,2013-03-04 18:31:00,
2013-03-04 12:36:00,55.2,34.0,28.74,ENE,68,0.0,0.0,45,0.00,,,0.00,WUHU216HW,2013-03-04 18:36:00,
2013-03-04 12:41:00,55.2,34.2,28.74,ENE,68,0.0,0.0,45,0.00,,,0.00,WUHU216HW,2013-03-04 18:41:00,
2013-03-04 12:46:00,55.0,33.9,28.74,ENE,68,0.0,0.0,45,0.00,,,0.00,WUHU216HW,2013-03-04 18:46:00,
2013-03-04 12:51:00,55.4,34.2,28.74,ENE,68,0.0,0.0,45,0.00,,,0.00,WUHU216HW,2013-03-04 18:51:00,
2013-03-04 12:56:00,56.1,34.3,28.74,ENE,68,0.2,0.2,44,0.00,,,0.00,WUHU216HW,2013-03-04 18:56:00,
2013-03-04 13:01:00,56.8,35.0,28.73,ENE,68,0.0,0.2,44,0.00,,,0.00,WUHU216HW,2013-03-04 19:01:00,
2013-03-04 13:06:00,55.5,33.8,28.73,ENE,68,0.0,0.2,44,0.00,,,0.00,WUHU216HW,2013-03-04 19:06:00,
2013-03-04 13:11:00,55.2,33.5,28.73,ENE,68,0.0,0.0,44,0.00,,,0.00,WUHU216HW,2013-03-04 19:11:00,
2013-03-04 13:16:00,55.2,33.5,28.73,ENE,68,0.0,0.0,44,0.00,,,0.00,WUHU216HW,2013-03-04 19:16:00,
2013-03-04 13:22:00,55.9,33.6,28.73,ENE,68,0.0,3.5,43,0.00,,,0.00,WUHU216HW,2013-03-04 19:22:00,
2013-03-04 13:27:00,55.9,33.6,28.73,NE,45,4.4,4.4,43,0.00,,,0.00,WUHU216HW,2013-03-04 19:27:00,
2013-03-04 13:32:00,55.7,34.0,28.74,NE,45,0.0,4.4,44,0.00,,,0.00,WUHU216HW,2013-03-04 19:32:00,
2013-03-04 13:37:00,56.1,34.3,28.73,NE,45,0.0,6.7,44,0.00,,,0.00,WUHU216HW,2013-03-04 19:37:00,
2013-03-04 13:42:00,56.6,33.7,28.73,NE,45,0.6,6.7,42,0.00,,,0.00,WUHU216HW,2013-03-04 19:42:00,
2013-03-04 13:47:00,56.6,33.7,28.73,NE,45,0.0,0.6,42,0.00,,,0.00,WUHU216HW,2013-03-04 19:47:00,
2013-03-04 13:52:00,56.6,34.3,28.73,NE,45,4.4,4.4,43,0.00,,,0.00,WUHU216HW,2013-03-04 19:52:00,
2013-03-04 13:57:00,55.5,33.2,28.73,NE,45,0.0,4.4,43,0.00,,,0.00,WUHU216HW,2013-03-04 19:57:00,
2013-03-04 14:02:00,54.3,32.7,28.73,NE,45,0.0,4.4,44,0.00,,,0.00,WUHU216HW,2013-03-04 20:02:00,
2013-03-04 14:07:00,53.9,32.3,28.73,NE,45,0.0,4.2,44,0.00,,,0.00,WUHU216HW,2013-03-04 20:07:00,
2013-03-04 14:12:00,53.2,32.8,28.73,NE,45,0.0,0.0,46,0.00,,,0.00,WUHU216HW,2013-03-04 20:12:00,
2013-03-04 14:18:00,53.4,33.0,28.74,NE,45,3.5,3.5,46,0.00,,,0.00,WUHU216HW,2013-03-04 20:18:00,
2013-03-04 14:23:00,53.4,33.0,28.74,NE,45,0.0,3.5,46,0.00,,,0.00,WUHU216HW,2013-03-04 20:23:00,
2013-03-04 14:28:00,52.3,32.6,28.74,NE,45,0.0,6.4,47,0.00,,,0.00,WUHU216HW,2013-03-04 20:28:00,
2013-03-04 14:33:00,51.9,32.2,28.74,NE,45,0.0,6.4,47,0.00,,,0.00,WUHU216HW,2013-03-04 20:33:00,
2013-03-04 14:38:00,51.8,32.1,28.74,NE,45,0.0,6.7,47,0.00,,,0.00,WUHU216HW,2013-03-04 20:38:00,
2013-03-04 14:43:00,51.4,32.3,28.74,NE,45,0.0,6.7,48,0.00,,,0.00,WUHU216HW,2013-03-04 20:43:00,
2013-03-04 14:48:00,51.0,32.0,28.74,NE,45,0.0,5.3,48,0.00,,,0.00,WUHU216HW,2013-03-04 20:48:00,
2013-03-04 14:53:00,50.7,32.2,28.74,NE,45,0.0,0.0,49,0.00,,,0.00,WUHU216HW,2013-03-04 20:53:00,
2013-03-04 14:58:00,50.7,32.2,28.75,WSW,248,0.0,0.0,49,0.00,,,0.00,WUHU216HW,2013-03-04 20:58:00,
2013-03-04 15:03:00,51.8,33.2,28.75,WSW,248,0.0,0.0,49,0.00,,,0.00,WUHU216HW,2013-03-04 21:03:00,
2013-03-04 15:08:00,52.8,33.6,28.75,WSW,248,0.0,0.0,48,0.00,,,0.00,WUHU216HW,2013-03-04 21:08:00,
2013-03-04 15:13:00,52.8,33.0,28.75,WSW,248,0.0,5.5,47,0.00,,,0.00,WUHU216HW,2013-03-04 21:13:00,
2013-03-04 15:19:00,52.8,33.0,28.76,NNW,338,0.0,5.5,47,0.00,,,0.00,WUHU216HW,2013-03-04 21:19:00,
2013-03-04 15:24:00,53.2,33.4,28.76,NNW,338,0.0,0.0,47,0.00,,,0.00,WUHU216HW,2013-03-04 21:24:00,
2013-03-04 15:29:00,52.8,33.0,28.75,NNW,338,0.0,0.0,47,0.00,,,0.00,WUHU216HW,2013-03-04 21:29:00,
2013-03-04 15:34:00,52.5,32.7,28.76,WSW,248,0.0,0.0,47,0.00,,,0.00,WUHU216HW,2013-03-04 21:34:00,
2013-03-04 15:39:00,51.9,32.2,28.76,NNW,338,0.0,0.0,47,0.00,,,0.00,WUHU216HW,2013-03-04 21:39:00,
2013-03-04 15:44:00,51.4,32.3,28.76,WSW,248,0.0,0.0,48,0.00,,,0.00,WUHU216HW,2013-03-04 21:44:00,
2013-03-04 15:49:00,51.0,32.5,28.76,NNW,338,0.0,0.0,49,0.00,,,0.00,WUHU216HW,2013-03-04 21:49:00,
2013-03-04 15:54:00,50.3,31.9,28.76,NNW,338,0.0,0.0,49,0.00,,,0.00,WUHU216HW,2013-03-04 21:54:00,
2013-03-04 15:59:00,50.1,32.3,28.76,WSW,248,0.0,0.0,50,0.00,,,0.00,WUHU216HW,2013-03-04 21:59:00,
2013-03-04 16:04:00,49.8,32.0,28.77,WSW,248,0.0,0.0,50,0.00,,,0.00,WUHU216HW,2013-03-04 22:04:00,
2013-03-04 16:09:00,49.8,32.0,28.77,WSW,248,0.0,0.0,50,0.00,,,0.00,WUHU216HW,2013-03-04 22:09:00,
2013-03-04 16:14:00,49.4,31.9,28.77,WSW,248,0.0,0.0,51,0.00,,,0.00,WUHU216HW,2013-03-04 22:14:00,
2013-03-04 16:19:00,48.9,31.5,28.77,WSW,248,0.0,0.0,51,0.00,,,0.00,WUHU216HW,2013-03-04 22:19:00,
2013-03-04 16:24:00,48.5,31.6,28.77,WSW,248,0.0,0.0,52,0.00,,,0.00,WUHU216HW,2013-03-04 22:24:00,
2013-03-04 16:30:00,48.2,31.4,28.78,WSW,248,0.0,0.0,52,0.00,,,0.00,WUHU216HW,2013-03-04 22:30:00,
2013-03-04 16:35:00,47.8,31.4,28.78,NNW,338,0.0,0.0,53,0.00,,,0.00,WUHU216HW,2013-03-04 22:35:00,
2013-03-04 16:40:00,47.8,31.4,28.78,NNW,338,0.0,0.0,53,0.00,,,0.00,WUHU216HW,2013-03-04 22:40:00,
2013-03-04 16:45:00,47.4,31.5,28.78,NNW,338,0.0,0.0,53,0.00,,,0.00,WUHU216HW,2013-03-04 22:45:00,
2013-03-04 16:50:00,47.3,31.4,28.79,NNW,338,0.0,0.0,54,0.00,,,0.00,WUHU216HW,2013-03-04 22:50:00,
2013-03-04 16:55:00,47.3,31.4,28.79,NNW,338,0.0,0.0,54,0.00,,,0.00,WUHU216HW,2013-03-04 22:55:00,
2013-03-04 17:00:00,47.1,31.2,28.79,NNW,338,0.0,0.0,54,0.00,,,0.00,WUHU216HW,2013-03-04 23:00:00,
2013-03-04 17:05:00,47.1,31.6,28.80,NNW,338,0.0,0.0,55,0.00,,,0.00,WUHU216HW,2013-03-04 23:05:00,
2013-03-04 17:10:00,47.1,31.6,28.80,NNW,338,0.0,0.0,55,0.00,,,0.00,WUHU216HW,2013-03-04 23:10:00,
2013-03-04 17:15:00,47.1,31.6,28.80,NNW,338,0.0,0.0,55,0.00,,,0.00,WUHU216HW,2013-03-04 23:15:00,
2013-03-04 17:20:00,46.9,31.5,28.80,NNW,338,0.0,0.0,55,0.00,,,0.00,WUHU216HW,2013-03-04 23:20:00,
2013-03-04 17:25:00,46.5,31.6,28.80,NNW,338,0.0,0.0,56,0.00,,,0.00,WUHU216HW,2013-03-04 23:25:00,
2013-03-04 17:30:00,46.2,31.2,28.80,NNW,338,0.0,0.0,56,0.00,,,0.00,WUHU216HW,2013-03-04 23:30:00,
2013-03-04 17:35:00,45.6,30.8,28.81,NNW,338,0.0,0.0,56,0.00,,,0.00,WUHU216HW,2013-03-04 23:35:00,
2013-03-04 17:40:00,45.1,30.7,28.81,NNW,338,0.0,0.0,57,0.00,,,0.00,WUHU216HW,2013-03-04 23:40:00,
2013-03-04 17:46:00,44.9,30.6,28.81,NNW,338,0.0,0.0,57,0.00,,,0.00,WUHU216HW,2013-03-04 23:46:00,
2013-03-04 17:51:00,44.4,30.5,28.81,NNW,338,0.0,0.0,58,0.00,,,0.00,WUHU216HW,2013-03-04 23:51:00,
2013-03-04 17:56:00,43.8,30.4,28.81,NNW,338,0.0,0.0,59,0.00,,,0.00,WUHU216HW,2013-03-04 23:56:00,
2013-03-04 18:01:00,43.3,29.9,28.81,NNW,338,0.0,0.0,59,0.00,,,0.00,WUHU216HW,2013-03-05 00:01:00,
2013-03-04 18:06:00,42.8,29.8,28.81,NNW,338,0.0,0.0,60,0.00,,,0.00,WUHU216HW,2013-03-05 00:06:00,
2013-03-04 18:11:00,42.6,30.0,28.82,NNW,338,0.0,0.4,61,0.00,,,0.00,WUHU216HW,2013-03-05 00:11:00,
2013-03-04 18:16:00,42.4,30.2,28.82,NNW,338,0.0,0.4,62,0.00,,,0.00,WUHU216HW,2013-03-05 00:16:00,
2013-03-04 18:21:00,42.0,29.9,28.83,NNW,338,0.0,0.0,62,0.00,,,0.00,WUHU216HW,2013-03-05 00:21:00,
2013-03-04 18:26:00,41.9,29.8,28.83,NNW,338,0.0,0.0,62,0.00,,,0.00,WUHU216HW,2013-03-05 00:26:00,
2013-03-04 18:31:00,41.5,29.8,28.84,NNW,338,0.0,0.0,63,0.00,,,0.00,WUHU216HW,2013-03-05 00:31:00,
2013-03-04 18:36:00,41.5,30.2,28.85,NNW,338,0.0,1.1,64,0.00,,,0.00,WUHU216HW,2013-03-05 00:36:00,
2013-03-04 18:41:00,41.5,29.8,28.85,NNW,338,0.0,1.1,63,0.00,,,0.00,WUHU216HW,2013-03-05 00:41:00,
2013-03-04 18:47:00,41.3,30.0,28.86,NNW,338,0.0,0.0,64,0.00,,,0.00,WUHU216HW,2013-03-05 00:47:00,
2013-03-04 18:52:00,41.1,29.8,28.87,NNW,338,6.0,6.0,64,0.00,,,0.00,WUHU216HW,2013-03-05 00:52:00,
2013-03-04 18:57:00,41.1,30.2,28.87,NW,315,0.0,6.0,65,0.00,,,0.00,WUHU216HW,2013-03-05 00:57:00,
2013-03-04 19:02:00,41.1,30.2,28.88,NNW,338,0.0,7.1,65,0.00,,,0.00,WUHU216HW,2013-03-05 01:02:00,
2013-03-04 19:07:00,41.0,30.1,28.88,NW,315,0.0,8.2,65,0.00,,,0.00,WUHU216HW,2013-03-05 01:07:00,
2013-03-04 19:12:00,40.8,29.9,28.89,NW,315,8.2,8.2,65,0.00,,,0.00,WUHU216HW,2013-03-05 01:12:00,
2013-03-04 19:17:00,40.4,29.5,28.89,NW,315,9.1,9.6,65,0.00,,,0.00,WUHU216HW,2013-03-05 01:17:00,
2013-03-04 19:22:00,40.2,29.7,28.90,North,0,8.5,9.6,66,0.00,,,0.00,WUHU216HW,2013-03-05 01:22:00,
2013-03-04 19:27:00,40.1,29.5,28.90,North,0,11.8,11.8,66,0.00,,,0.00,WUHU216HW,2013-03-05 01:27:00,
2013-03-04 19:32:00,39.9,29.4,28.90,North,0,9.3,11.8,66,0.00,,,0.00,WUHU216HW,2013-03-05 01:32:00,
2013-03-04 19:37:00,39.7,29.2,28.90,NNW,338,4.0,9.3,66,0.00,,,0.00,WUHU216HW,2013-03-05 01:37:00,
2013-03-04 19:42:00,39.5,29.4,28.90,NNW,338,16.7,16.7,67,0.00,,,0.00,WUHU216HW,2013-03-05 01:42:00,
2013-03-04 19:47:00,39.5,29.4,28.91,NNW,338,8.5,16.7,67,0.00,,,0.00,WUHU216HW,2013-03-05 01:47:00,
2013-03-04 19:52:00,39.5,29.4,28.91,NNW,338,0.0,16.7,67,0.00,,,0.00,WUHU216HW,2013-03-05 01:52:00,
2013-03-04 19:57:00,39.3,29.2,28.91,NW,315,8.7,13.4,67,0.00,,,0.00,WUHU216HW,2013-03-05 01:57:00,
2013-03-04 20:02:00,39.3,29.2,28.91,North,0,15.8,15.8,67,0.00,,,0.00,WUHU216HW,2013-03-05 02:02:00,
2013-03-04 20:07:00,39.3,29.2,28.92,NNW,338,12.5,15.8,67,0.00,,,0.00,WUHU216HW,2013-03-05 02:07:00,
2013-03-04 20:13:00,39.0,28.9,28.92,NW,315,9.1,12.5,67,0.00,,,0.00,WUHU216HW,2013-03-05 02:13:00,
2013-03-04 20:18:00,39.0,28.9,28.92,NNW,338,8.2,9.8,67,0.00,,,0.00,WUHU216HW,2013-03-05 02:18:00,
2013-03-04 20:23:00,39.0,28.9,28.93,NNW,338,8.2,9.1,67,0.00,,,0.00,WUHU216HW,2013-03-05 02:23:00,
2013-03-04 20:28:00,38.8,28.7,28.93,North,0,3.5,13.8,67,0.00,,,0.00,WUHU216HW,2013-03-05 02:28:00,
2013-03-04 20:33:00,38.8,29.1,28.94,North,0,12.9,13.8,68,0.00,,,0.00,WUHU216HW,2013-03-05 02:33:00,
2013-03-04 20:38:00,38.8,29.1,28.93,North,0,12.9,12.9,68,0.00,,,0.00,WUHU216HW,2013-03-05 02:38:00,
2013-03-04 20:43:00,38.4,28.7,28.94,NNW,338,5.3,12.9,68,0.00,,,0.00,WUHU216HW,2013-03-05 02:43:00,
2013-03-04 20:48:00,38.4,29.1,28.94,NNW,338,11.8,12.9,69,0.00,,,0.00,WUHU216HW,2013-03-05 02:48:00,
2013-03-04 20:54:00,38.3,29.0,28.94,NW,315,11.1,11.8,69,0.00,,,0.00,WUHU216HW,2013-03-05 02:54:00,
2013-03-04 20:59:00,38.3,29.0,28.95,North,0,8.7,11.8,69,0.00,,,0.00,WUHU216HW,2013-03-05 02:59:00,
2013-03-04 21:04:00,38.3,29.0,28.95,NW,315,0.0,11.1,69,0.00,,,0.00,WUHU216HW,2013-03-05 03:04:00,
2013-03-04 21:09:00,38.1,28.8,28.95,NNW,338,8.5,10.2,69,0.00,,,0.00,WUHU216HW,2013-03-05 03:09:00,
2013-03-04 21:14:00,38.1,28.8,28.96,NW,315,3.3,8.5,69,0.00,,,0.00,WUHU216HW,2013-03-05 03:14:00,
2013-03-04 21:19:00,37.9,29.0,28.96,NNW,338,8.5,9.3,70,0.00,,,0.00,WUHU216HW,2013-03-05 03:19:00,
2013-03-04 21:24:00,37.9,29.0,28.96,NNW,338,9.1,9.3,70,0.00,,,0.00,WUHU216HW,2013-03-05 03:24:00,
2013-03-04 21:29:00,37.9,29.3,28.96,NW,315,10.7,10.9,71,0.00,,,0.00,WUHU216HW,2013-03-05 03:29:00,
2013-03-04 21:34:00,37.7,29.2,28.97,NNW,338,15.8,15.8,71,0.00,,,0.00,WUHU216HW,2013-03-05 03:34:00,
2013-03-04 21:39:00,37.5,29.3,28.97,NW,315,6.9,15.8,72,0.00,,,0.00,WUHU216HW,2013-03-05 03:39:00,
2013-03-04 21:44:00,37.5,29.7,28.97,NW,315,9.6,15.8,73,0.00,,,0.00,WUHU216HW,2013-03-05 03:44:00,
2013-03-04 21:49:00,37.4,29.5,28.98,NNW,338,13.1,13.1,73,0.00,,,0.00,WUHU216HW,2013-03-05 03:49:00,
2013-03-04 21:54:00,37.2,30.0,28.98,NNW,338,0.0,13.1,75,0.00,,,0.00,WUHU216HW,2013-03-05 03:54:00,
2013-03-04 21:59:00,37.2,30.3,28.98,NNW,338,7.6,10.5,76,0.00,,,0.00,WUHU216HW,2013-03-05 03:59:00,
2013-03-04 22:04:00,37.2,30.6,28.99,NNW,338,0.0,10.5,77,0.00,,,0.00,WUHU216HW,2013-03-05 04:04:00,
2013-03-04 22:09:00,37.0,30.8,28.99,NW,315,8.2,9.3,78,0.00,,,0.00,WUHU216HW,2013-03-05 04:09:00,
2013-03-04 22:15:00,37.0,30.8,28.99,NNW,338,7.3,12.9,78,0.00,,,0.00,WUHU216HW,2013-03-05 04:15:00,
2013-03-04 22:20:00,36.8,30.6,28.99,NW,315,12.9,12.9,78,0.00,,,0.00,WUHU216HW,2013-03-05 04:20:00,
2013-03-04 22:25:00,36.8,30.6,28.99,NNW,338,8.0,13.1,78,0.00,,,0.00,WUHU216HW,2013-03-05 04:25:00,
2013-03-04 22:30:00,36.6,30.4,28.99,NW,315,8.5,13.1,78,0.00,,,0.00,WUHU216HW,2013-03-05 04:30:00,
2013-03-04 22:35:00,36.6,30.4,29.00,NW,315,15.8,15.8,78,0.00,,,0.00,WUHU216HW,2013-03-05 04:35:00,
2013-03-04 22:40:00,36.5,30.5,29.00,North,0,7.1,15.8,79,0.00,,,0.00,WUHU216HW,2013-03-05 04:40:00,
2013-03-04 22:45:00,36.3,30.4,29.00,NW,315,11.8,12.9,79,0.00,,,0.00,WUHU216HW,2013-03-05 04:45:00,
2013-03-04 22:50:00,36.3,30.4,29.00,NNW,338,15.4,15.4,79,0.00,,,0.00,WUHU216HW,2013-03-05 04:50:00,
2013-03-04 22:55:00,36.1,30.5,29.00,NW,315,14.5,15.4,80,0.00,,,0.00,WUHU216HW,2013-03-05 04:55:00,
2013-03-04 23:00:00,35.9,30.6,29.01,NW,315,11.6,14.5,81,0.00,,,0.00,WUHU216HW,2013-03-05 05:00:00,
2013-03-04 23:01:00,35.9,30.6,29.01,NW,315,11.6,14.5,81,0.00,,,0.00,WUHU216HW,2013-03-05 05:01:00,
2013-03-04 23:06:00,35.7,30.4,29.01,NNW,338,10.2,14.5,81,0.00,,,0.00,WUHU216HW,2013-03-05 05:06:00,
2013-03-04 23:11:00,35.7,30.4,29.02,NNW,338,0.0,11.6,81,0.00,,,0.00,WUHU216HW,2013-03-05 05:11:00,
2013-03-04 23:16:00,35.4,30.1,29.02,North,0,7.3,10.2,81,0.00,,,0.00,WUHU216HW,2013-03-05 05:16:00,
2013-03-04 23:21:00,35.2,30.2,29.02,NNW,338,6.7,8.7,82,0.00,,,0.00,WUHU216HW,2013-03-05 05:21:00,
2013-03-04 23:26:00,35.2,30.5,29.02,NNW,338,17.2,18.1,83,0.00,,,0.00,WUHU216HW,2013-03-05 05:26:00,
2013-03-04 23:31:00,35.0,30.3,29.02,NW,315,7.6,18.1,83,0.00,,,0.00,WUHU216HW,2013-03-05 05:31:00,
2013-03-04 23:36:00,34.8,30.1,29.02,NW,315,0.0,17.2,83,0.00,,,0.00,WUHU216HW,2013-03-05 05:36:00,
2013-03-04 23:41:00,34.7,30.2,29.02,NNW,338,2.6,8.9,84,0.00,,,0.00,WUHU216HW,2013-03-05 05:41:00,
2013-03-04 23:46:00,34.7,30.2,29.02,NNW,338,2.6,8.9,84,0.00,,,0.00,WUHU216HW,2013-03-05 05:46:00,
2013-03-04 23:51:00,34.7,30.2,29.02,NNW,338,2.6,2.6,84,0.00,,,0.00,WUHU216HW,2013-03-05 05:51:00,
2013-03-04 23:56:00,34.7,30.2,29.03,NNW,338,2.6,2.6,84,0.00,,,0.00,WUHU216HW,2013-03-05 05:56:00,